Data for 12/13/2007

Time Sea-Level Adjusted Pressure Absolute Pressure Temperature Relative Humidity Dew Point   
(mb) (inHg) (mb) (inHg) (C) (F) (%) (C) (F)
00:05 1021 30.15 850 25.1 -5.6 21.9 61 -12.1 10.3
00:10 1021 30.15 850 25.1 -5.3 22.5 60 -11.9 10.6
00:15 1021 30.15 850 25.1 -5.4 22.2 61 -11.8 10.7
00:20 1021 30.15 850 25.1 -5.6 22 62 -11.8 10.7
00:25 1021 30.15 850 25.1 -5.6 22 61 -12 10.5
00:30 1021 30.15 850 25.1 -5.4 22.4 60 -12 10.3
00:35 1021 30.15 850 25.1 -5.1 22.8 60 -11.7 10.9
00:40 1021 30.15 850 25.1 -5.1 22.8 60 -11.7 10.9
00:45 1021 30.15 850 25.1 -5.3 22.5 61 -11.7 11
00:50 1021 30.15 850 25.1 -5.5 22.1 62 -11.6 11.1
00:55 1021 30.15 850 25.1 -5.8 21.6 63 -11.8 10.7
01:00 1021 30.15 850 25.1 -5.9 21.4 63 -11.8 10.8
01:05 1021 30.15 850 25.1 -6.1 21 62 -12.2 10.1
01:10 1021 30.15 850 25.1 -6.6 20 65 -12.1 10.1
01:15 1021 30.15 850 25.1 -7.2 19 67 -12.3 9.8
01:20 1021 30.15 850 25.1 -7.2 19 66 -12.5 9.5
01:25 1021 30.15 850 25.1 -7 19.4 66 -12.4 9.7
01:30 1021 30.15 850 25.1 -6.8 19.8 65 -12.3 9.9
01:35 1021 30.15 850 25.1 -6.6 20.1 64 -12.3 9.8
01:40 1021 30.15 850 25.1 -6.6 20.2 64 -12.3 9.9
01:45 1021 30.15 850 25.1 -6.5 20.2 64 -12.3 9.9
01:50 1021 30.15 850 25.1 -6.6 20.2 63 -12.4 9.7
01:55 1021 30.15 850 25.1 -6.5 20.3 64 -12.3 9.9
02:00 1021 30.15 850 25.1 -6.7 19.9 64 -12.4 9.7
02:05 1021 30.15 850 25.1 -7 19.5 65 -12.4 9.6
02:10 1021 30.15 850 25.1 -6.9 19.6 65 -12.4 9.8
02:15 1021 30.15 850 25.1 -6.8 19.8 65 -12.4 9.7
02:20 1021 30.15 850 25.1 -6.8 19.8 65 -12.3 9.8
02:25 1021 30.15 850 25.1 -7 19.5 66 -12.3 9.9
02:30 1021 30.15 851 25.13 -7.5 18.4 67 -12.7 9.1
02:35 1021 30.15 851 25.13 -7.8 18 69 -12.6 9.4
02:40 1021 30.15 851 25.13 -7.8 17.9 69 -12.6 9.3
02:45 1021 30.15 851 25.13 -7.6 18.2 69 -12.4 9.6
02:50 1021 30.15 851 25.13 -7.6 18.3 69 -12.4 9.6
02:55 1021 30.15 851 25.13 -7.3 18.8 67 -12.4 9.7
03:00 1021 30.15 851 25.13 -7.1 19.2 67 -12.2 10
03:05 1021 30.15 851 25.13 -6.9 19.5 66 -12.2 10
03:10 1021 30.15 851 25.13 -6.8 19.8 65 -12.3 9.8
03:15 1021 30.15 851 25.13 -6.6 20 65 -12.2 10.1
03:20 1021 30.15 851 25.13 -6.8 19.8 66 -12.1 10.2
03:25 1021 30.15 851 25.13 -6.9 19.6 68 -11.9 10.6
03:30 1021 30.15 851 25.13 -7 19.5 66 -12.3 9.9
03:35 1021 30.15 851 25.13 -6.7 19.9 65 -12.3 9.9
03:40 1021 30.15 851 25.13 -6.5 20.3 64 -12.2 10.1
03:45 1021 30.15 851 25.13 -6.5 20.3 64 -12.2 10.1
03:50 1022 30.18 851 25.13 -6.7 19.9 65 -12.3 9.9
03:55 1022 30.18 851 25.13 -6.8 19.7 65 -12.4 9.7
04:00 1022 30.18 851 25.13 -6.9 19.6 65 -12.3 9.8
04:05 1021 30.15 851 25.13 -7.2 19 67 -12.3 9.8
04:10 1021 30.15 851 25.13 -7.4 18.6 67 -12.5 9.6
04:15 1021 30.15 851 25.13 -7.6 18.3 68 -12.5 9.4
04:20 1021 30.15 851 25.13 -7.3 18.9 67 -12.4 9.7
04:25 1021 30.15 851 25.13 -7.1 19.3 66 -12.4 9.7
04:30 1021 30.15 851 25.13 -6.8 19.8 65 -12.3 9.8
04:35 1021 30.15 850 25.1 -6.5 20.3 64 -12.2 10
04:40 1021 30.15 850 25.1 -6.5 20.4 64 -12.2 10.1
04:45 1021 30.15 850 25.1 -6.5 20.3 64 -12.1 10.2
04:50 1021 30.15 850 25.1 -6.8 19.8 65 -12.3 9.9
04:55 1021 30.15 850 25.1 -6.8 19.7 65 -12.3 9.9
05:00 1021 30.15 850 25.1 -6.6 20.1 65 -12.2 10.1
05:05 1021 30.15 850 25.1 -6.4 20.4 63 -12.4 9.7
05:10 1021 30.15 850 25.1 -6.3 20.7 63 -12.1 10.2
05:15 1021 30.15 850 25.1 -6.3 20.7 63 -12.2 10
05:20 1021 30.15 850 25.1 -6.2 20.8 62 -12.3 9.8
05:25 1021 30.15 850 25.1 -6.2 20.8 63 -12.2 10
05:30 1021 30.15 850 25.1 -6.4 20.4 65 -12 10.3
05:35 1021 30.15 850 25.1 -6.7 20 66 -11.9 10.5
05:40 1021 30.15 850 25.1 -6.7 19.9 66 -12.1 10.1
05:45 1021 30.15 850 25.1 -6.6 20.1 64 -12.4 9.7
05:50 1021 30.15 850 25.1 -6.4 20.5 63 -12.3 9.9
05:55 1021 30.15 850 25.1 -6.3 20.7 63 -12.2 10
06:00 1021 30.15 850 25.1 -6.1 21 62 -12.2 10
06:05 1021 30.15 850 25.1 -5.9 21.4 60 -12.4 9.7
06:10 1021 30.15 850 25.1 -5.6 21.9 60 -12.2 10
06:15 1021 30.15 850 25.1 -5.4 22.2 60 -12.1 10.2
06:20 1021 30.15 850 25.1 -5.5 22.1 62 -11.7 11
06:25 1021 30.15 850 25.1 -5.5 22 62 -11.7 11
06:30 1021 30.15 850 25.1 -5.6 22 63 -11.6 11.1
06:35 1021 30.15 850 25.1 -5.6 22 61 -11.9 10.7
06:40 1021 30.15 850 25.1 -5.6 21.9 63 -11.5 11.3
06:45 1021 30.15 850 25.1 -5.6 21.9 64 -11.4 11.5
06:50 1021 30.15 851 25.13 -5.6 21.9 65 -11.2 11.8
06:55 1021 30.15 851 25.13 -5.7 21.8 69 -10.4 13.3
07:00 1021 30.15 851 25.13 -5.8 21.6 74 -9.7 14.5
07:05 1021 30.15 851 25.13 -6 21.2 78 -9.2 15.5
07:10 1021 30.15 851 25.13 -6.1 21 81 -8.9 16
07:15 1021 30.15 851 25.13 -6.2 20.8 82 -8.8 16.2
07:20 1021 30.15 851 25.13 -6.3 20.7 84 -8.6 16.6
07:25 1021 30.15 851 25.13 -6.3 20.6 85 -8.5 16.7
07:30 1021 30.15 851 25.13 -6.4 20.5 85 -8.5 16.6
07:35 1021 30.15 851 25.13 -6.5 20.4 86 -8.4 16.8
07:40 1021 30.15 851 25.13 -6.5 20.3 87 -8.4 16.9
07:45 1021 30.15 851 25.13 -6.5 20.2 86 -8.5 16.8
07:50 1021 30.15 851 25.13 -6.6 20.1 87 -8.4 16.8
07:55 1021 30.15 851 25.13 -6.7 20 88 -8.3 17.1
08:00 1021 30.15 851 25.13 -6.7 20 89 -8.2 17.2
08:05 1021 30.15 851 25.13 -6.7 20 89 -8.3 17.1
08:10 1021 30.15 851 25.13 -6.7 20 88 -8.3 17.1
08:15 1021 30.15 851 25.13 -6.7 19.9 89 -8.3 17.1
08:20 1021 30.15 851 25.13 -6.7 20 89 -8.2 17.2
08:25 1021 30.15 851 25.13 -6.7 19.9 89 -8.2 17.3
08:30 1021 30.15 850 25.1 -6.8 19.8 90 -8.2 17.2
08:35 1021 30.15 850 25.1 -6.8 19.8 90 -8.2 17.3
08:40 1021 30.15 850 25.1 -6.7 19.9 90 -8 17.5
08:45 1021 30.15 850 25.1 -6.6 20.1 89 -8.1 17.5
08:50 1021 30.15 850 25.1 -6.6 20.1 89 -8.1 17.4
08:55 1021 30.15 850 25.1 -6.5 20.3 89 -8.1 17.5
09:00 1021 30.15 850 25.1 -6.5 20.3 89 -8 17.6
09:05 1021 30.15 850 25.1 -6.5 20.3 89 -8 17.6
09:10 1021 30.15 850 25.1 -6.7 20 90 -8 17.5
09:15 1021 30.15 850 25.1 -6.9 19.6 92 -8 17.5
09:20 1021 30.15 850 25.1 -6.8 19.8 90 -8.1 17.4
09:25 1021 30.15 850 25.1 -6.8 19.8 91 -8 17.6
09:30 1021 30.15 850 25.1 -6.9 19.6 92 -8 17.6
09:35 1021 30.15 850 25.1 -6.8 19.8 91 -8 17.6
09:40 1021 30.15 850 25.1 -6.6 20 90 -8 17.6
09:45 1021 30.15 850 25.1 -6.5 20.3 89 -8 17.6
09:50 1021 30.15 850 25.1 -6.3 20.7 88 -7.9 17.8
09:55 1021 30.15 850 25.1 -6 21.2 87 -7.9 17.8
10:00 1021 30.15 850 25.1 -5.7 21.7 85 -7.8 17.9
10:05 1021 30.15 850 25.1 -5.6 22 85 -7.7 18.1
10:10 1021 30.15 850 25.1 -5.4 22.2 84 -7.7 18.1
10:15 1021 30.15 850 25.1 -5.2 22.7 84 -7.5 18.5
10:20 1021 30.15 850 25.1 -5.1 22.9 84 -7.4 18.7
10:25 1021 30.15 850 25.1 -4.9 23.2 82 -7.5 18.5
10:30 1021 30.15 850 25.1 -5.2 22.7 85 -7.3 18.8
10:35 1021 30.15 850 25.1 -5.1 22.9 85 -7.2 19
10:40 1021 30.15 850 25.1 -5.2 22.7 86 -7.2 19
10:45 1021 30.15 850 25.1 -5.1 22.8 86 -7.2 19.1
10:50 1021 30.15 850 25.1 -4.6 23.7 83 -7.2 19.1
10:55 1021 30.15 850 25.1 -4.3 24.3 80 -7.2 19
11:00 1021 30.15 850 25.1 -4.7 23.6 82 -7.3 18.8
11:05 1021 30.15 850 25.1 -4.7 23.5 81 -7.5 18.6
11:10 1021 30.15 850 25.1 -4.2 24.4 78 -7.4 18.6
11:15 1021 30.15 850 25.1 -3.7 25.4 76 -7.3 18.8
11:20 1021 30.15 850 25.1 -3.9 24.9 78 -7.3 18.9
11:25 1021 30.15 850 25.1 -3.9 24.9 76 -7.6 18.3
11:30 1021 30.15 850 25.1 -3.8 25.1 76 -7.5 18.5
11:35 1021 30.15 850 25.1 -4.3 24.2 78 -7.6 18.3
11:40 1021 30.15 850 25.1 -3.9 25 74 -7.9 17.8
11:45 1021 30.15 850 25.1 -3.8 25.1 74 -7.7 18.1
11:50 1021 30.15 850 25.1 -3.6 25.5 72 -7.9 17.7
11:55 1021 30.15 850 25.1 -3.6 25.6 73 -7.7 18.1
12:00 1020 30.12 850 25.1 -3.2 26.2 72 -7.6 18.3
12:05 1020 30.12 850 25.1 -3 26.6 71 -7.5 18.5
12:10 1020 30.12 849 25.07 -2.5 27.5 67 -7.8 18
12:15 1020 30.12 849 25.07 -3 26.6 68 -8.1 17.5
12:20 1020 30.12 849 25.07 -2.5 27.5 65 -8.2 17.2
12:25 1020 30.12 849 25.07 -2.7 27.1 66 -8.3 17.1
12:30 1020 30.12 849 25.07 -2.1 28.2 62 -8.4 17
12:35 1020 30.12 849 25.07 -1.1 30 58 -8.3 17
12:40 1020 30.12 849 25.07 -1 30.1 60 -7.8 18
12:45 1020 30.12 849 25.07 -1.3 29.6 59 -8.4 16.9
12:50 1020 30.12 849 25.07 -1.3 29.6 58 -8.6 16.5
12:55 1020 30.12 849 25.07 -1.5 29.3 58 -8.7 16.3
13:00 1020 30.12 849 25.07 -1.9 28.6 59 -8.8 16.2
13:05 1020 30.12 849 25.07 -2.2 28.1 59 -9.2 15.4
13:10 1020 30.12 849 25.07 -2 28.4 60 -8.9 16
13:15 1020 30.12 849 25.07 -2.1 28.2 59 -9 15.8
13:20 1020 30.12 849 25.07 -1.8 28.8 58 -9 15.8
13:25 1019 30.09 849 25.07 -1.6 29.2 60 -8.4 16.9
13:30 1019 30.09 849 25.07 -1.4 29.5 60 -8.2 17.2
13:35 1019 30.09 849 25.07 -1.6 29.2 59 -8.5 16.7
13:40 1019 30.09 849 25.07 -1.9 28.6 61 -8.5 16.7
13:45 1019 30.09 849 25.07 -1.5 29.4 57 -8.8 16.1
13:50 1019 30.09 848 25.04 -1.1 30 62 -7.6 18.4
13:55 1019 30.09 848 25.04 -1.7 28.9 63 -7.9 17.7
14:00 1019 30.09 848 25.04 -2.5 27.5 63 -8.5 16.7
14:05 1019 30.09 848 25.04 -1.8 28.7 58 -9 15.8
14:10 1019 30.09 848 25.04 -0.7 30.7 56 -8.4 16.9
14:15 1019 30.09 848 25.04 -0.8 30.6 56 -8.5 16.8
14:20 1019 30.09 848 25.04 -0.9 30.3 56 -8.7 16.3
14:25 1019 30.09 848 25.04 -0.5 31.1 55 -8.6 16.6
14:30 1019 30.09 848 25.04 -0.9 30.4 58 -8.3 17.1
14:35 1019 30.09 848 25.04 -1.1 30 57 -8.6 16.5
14:40 1019 30.09 848 25.04 -0.9 30.4 53 -9.4 15.2
14:45 1019 30.09 848 25.04 -0.6 30.9 52 -9.3 15.3
14:50 1019 30.09 848 25.04 0.3 32.6 50 -8.9 16
14:55 1019 30.09 848 25.04 -0.3 31.4 49 -9.9 14.2
15:00 1019 30.09 848 25.04 -1.2 29.8 53 -9.6 14.7
15:05 1019 30.09 848 25.04 -1.7 28.9 56 -9.5 15
15:10 1019 30.09 848 25.04 -1.9 28.6 54 -10 13.9
15:15 1019 30.09 848 25.04 -2 28.4 55 -9.8 14.3
15:20 1019 30.09 848 25.04 -2 28.3 55 -9.8 14.3
15:25 1019 30.09 848 25.04 -2 28.3 55 -9.9 14.2
15:30 1019 30.09 848 25.04 -2.3 27.8 58 -9.5 14.8
15:35 1019 30.09 848 25.04 -2.4 27.7 55 -10.1 13.8
15:40 1019 30.09 848 25.04 -2.5 27.5 53 -10.9 12.3
15:45 1019 30.09 848 25.04 -2.6 27.3 54 -10.8 12.6
15:50 1019 30.09 848 25.04 -2.4 27.7 51 -11.3 11.6
15:55 1019 30.09 848 25.04 -2.6 27.3 52 -11 12.1
16:00 1019 30.09 848 25.04 -2.6 27.3 53 -11 12.2
16:05 1019 30.09 848 25.04 -2.7 27.2 52 -11.1 12
16:10 1019 30.09 848 25.04 -2.7 27.1 53 -11 12.2
16:15 1019 30.09 848 25.04 -2.7 27.1 54 -10.7 12.7
16:20 1019 30.09 848 25.04 -2.7 27.1 54 -10.7 12.7
16:25 1019 30.09 848 25.04 -2.8 27 55 -10.6 12.9
16:30 1019 30.09 848 25.04 -2.8 27 53 -11 12.1
16:35 1019 30.09 848 25.04 -2.8 27 54 -10.9 12.4
16:40 1019 30.09 848 25.04 -2.8 27 56 -10.3 13.4
16:45 1019 30.09 848 25.04 -2.9 26.7 55 -10.7 12.8
16:50 1019 30.09 848 25.04 -3 26.7 58 -10 14
16:55 1019 30.09 848 25.04 -2.9 26.8 57 -10.2 13.6
17:00 1019 30.09 848 25.04 -2.9 26.7 60 -9.5 14.8
17:05 1019 30.09 848 25.04 -3 26.5 61 -9.4 15
17:10 1019 30.09 848 25.04 -3.1 26.5 62 -9.4 15
17:15 1019 30.09 848 25.04 -3 26.5 61 -9.5 14.9
17:20 1019 30.09 848 25.04 -3 26.6 61 -9.6 14.8
17:25 1019 30.09 848 25.04 -3 26.6 61 -9.6 14.7
17:30 1019 30.09 848 25.04 -3.1 26.5 62 -9.4 15.1
17:35 1019 30.09 848 25.04 -3.1 26.4 62 -9.5 15
17:40 1019 30.09 848 25.04 -3.2 26.2 63 -9.4 15.1
17:45 1019 30.09 848 25.04 -3.3 26 63 -9.4 15.2
17:50 1019 30.09 848 25.04 -3.4 26 63 -9.5 14.9
17:55 1019 30.09 848 25.04 -3.3 26 62 -9.6 14.7
18:00 1019 30.09 848 25.04 -3.3 26.1 62 -9.5 14.9
18:05 1019 30.09 848 25.04 -3.3 26.1 62 -9.5 14.8
18:10 1019 30.09 848 25.04 -3.3 26 61 -9.8 14.4
18:15 1019 30.09 848 25.04 -3.3 26.1 61 -9.8 14.4
18:20 1019 30.09 848 25.04 -3.3 26.1 62 -9.6 14.8
18:25 1019 30.09 848 25.04 -3.3 26 62 -9.5 14.8
18:30 1019 30.09 848 25.04 -3.4 25.9 62 -9.5 14.8
18:35 1019 30.09 848 25.04 -3.5 25.8 63 -9.6 14.8
18:40 1019 30.09 848 25.04 -3.5 25.7 64 -9.4 15.1
18:45 1019 30.09 849 25.07 -3.6 25.5 65 -9.4 15.2
18:50 1019 30.09 849 25.07 -3.7 25.3 65 -9.3 15.2
18:55 1019 30.09 849 25.07 -3.8 25.1 66 -9.4 15.2
19:00 1019 30.09 849 25.07 -4.1 24.6 66 -9.5 15
19:05 1019 30.09 849 25.07 -4.1 24.7 65 -9.6 14.6
19:10 1019 30.09 849 25.07 -3.9 25 64 -9.7 14.6
19:15 1019 30.09 849 25.07 -3.8 25.2 65 -9.5 15
19:20 1020 30.12 849 25.07 -3.8 25.2 65 -9.5 14.9
19:25 1020 30.12 849 25.07 -3.8 25.2 65 -9.5 14.9
19:30 1020 30.12 849 25.07 -3.8 25.1 65 -9.6 14.7
19:35 1020 30.12 849 25.07 -3.8 25.1 65 -9.5 14.9
19:40 1020 30.12 849 25.07 -3.8 25.2 65 -9.3 15.2
19:45 1020 30.12 849 25.07 -3.8 25.1 66 -9.4 15.2
19:50 1020 30.12 849 25.07 -3.9 25 66 -9.3 15.3
19:55 1020 30.12 849 25.07 -4 24.9 68 -9.1 15.7
20:00 1020 30.12 849 25.07 -4.1 24.7 67 -9.2 15.4
20:05 1020 30.12 849 25.07 -4 24.7 66 -9.4 15
20:10 1020 30.12 849 25.07 -4.1 24.7 67 -9.3 15.3
20:15 1020 30.12 849 25.07 -4.1 24.6 67 -9.4 15.1
20:20 1020 30.12 849 25.07 -4.1 24.6 67 -9.4 15.1
20:25 1020 30.12 849 25.07 -4.1 24.6 68 -9.2 15.4
20:30 1020 30.12 849 25.07 -4.2 24.4 68 -9.2 15.4
20:35 1020 30.12 849 25.07 -4.3 24.2 68 -9.3 15.2
20:40 1020 30.12 849 25.07 -4.4 24 69 -9.2 15.4
20:45 1020 30.12 849 25.07 -4.5 24 70 -9.2 15.4
20:50 1020 30.12 849 25.07 -4.5 23.9 70 -9.2 15.5
20:55 1020 30.12 849 25.07 -4.5 23.8 69 -9.4 15.1
21:00 1020 30.12 849 25.07 -4.6 23.8 67 -9.8 14.3
21:05 1020 30.12 849 25.07 -4.6 23.8 68 -9.6 14.7
21:10 1020 30.12 849 25.07 -4.6 23.7 67 -9.9 14.3
21:15 1020 30.12 849 25.07 -4.6 23.6 67 -9.9 14.2
21:20 1020 30.12 849 25.07 -4.7 23.5 67 -9.9 14.1
21:25 1020 30.12 849 25.07 -4.8 23.3 67 -10 14.1
21:30 1020 30.12 849 25.07 -4.8 23.3 67 -10.1 13.8
21:35 1020 30.12 849 25.07 -4.8 23.3 65 -10.4 13.3
21:40 1020 30.12 849 25.07 -4.8 23.3 65 -10.4 13.2
21:45 1020 30.12 849 25.07 -4.8 23.4 64 -10.7 12.8
21:50 1020 30.12 849 25.07 -4.7 23.5 62 -10.9 12.4
21:55 1020 30.12 849 25.07 -4.7 23.5 63 -10.7 12.7
22:00 1020 30.12 849 25.07 -4.7 23.5 62 -10.9 12.3
22:05 1020 30.12 849 25.07 -4.8 23.4 62 -11.1 12.1
22:10 1020 30.12 849 25.07 -4.8 23.4 61 -11.2 11.9
22:15 1020 30.12 849 25.07 -4.8 23.4 61 -11.2 11.9
22:20 1020 30.12 849 25.07 -4.8 23.4 61 -11.2 11.8
22:25 1020 30.12 849 25.07 -4.8 23.4 62 -11 12.1
22:30 1020 30.12 849 25.07 -5 23.1 67 -10.3 13.5
22:35 1020 30.12 849 25.07 -5.5 22.2 68 -10.5 13.1
22:40 1020 30.12 849 25.07 -5.5 22 67 -10.7 12.7
22:45 1020 30.12 849 25.07 -5.4 22.3 66 -10.8 12.6
22:50 1020 30.12 849 25.07 -5.2 22.7 64 -11 12.2
22:55 1020 30.12 849 25.07 -5.1 22.9 62 -11.2 11.8
23:00 1020 30.12 849 25.07 -5 23 62 -11.2 11.8
23:05 1020 30.12 849 25.07 -5 23 62 -11.2 11.8
23:10 1020 30.12 849 25.07 -4.9 23.1 62 -11.2 11.8
23:15 1020 30.12 849 25.07 -5 23.1 62 -11.2 11.8
23:20 1020 30.12 849 25.07 -4.9 23.1 62 -11.1 12
23:25 1020 30.12 849 25.07 -4.9 23.2 63 -10.9 12.3
23:30 1020 30.12 849 25.07 -4.9 23.2 62 -11.1 12
23:35 1020 30.12 849 25.07 -4.9 23.2 62 -11 12.2
23:40 1020 30.12 849 25.07 -4.9 23.2 62 -11 12.1
23:45 1020 30.12 849 25.07 -4.8 23.3 63 -10.9 12.3
23:50 1020 30.12 849 25.07 -4.8 23.4 62 -11 12.2
23:55 1020 30.12 849 25.07 -5 23.1 65 -10.7 12.8
24:00 1020 30.12 849 25.07 -5.2 22.7 66 -10.6 12.9